Startpagina
METAR-TAF:

METAR-TAF

Vliegvelden :

Aeropuerto de Gran Canaria

Gran Canaria, Spanje

breedte: 27-56N, lengte: 015-23W, hoogte: 23 m

Actueel weer

Dit bericht is 15 minuten geleden gemaakt, om 13:30 UTC
Wind 20 kt uit het noorden, variërend tussen het noordnoordwesten en het noordoosten
Temperatuur 22°C
Vochtigheid 50%
Druk 1021 hPa
Zicht 10 km of meer
Verspreide wolken op 3800 ft

METAR: GCLP 261330Z 01020KT 340V040 9999 SCT038 22/11 Q1021 NOSIG

Tijdstip: 14:45 (13:45 UTC)

Verwachting

Dit bericht is 5 uur en het 45 minuten geleden gemaakt, om 08:00 UTC
Verwachting geldig van 26 om 09 UTC tot 27 om 09 UTC
Wind 23 kt uit het noordnoordoosten
Zicht 10 km of meer
Verspreide wolken op 3000 ft
Kans 40% :
Tijdelijke
van 26 om 15 UTC tot 26 om 18 UTC
Wind 23 kt uit het noordnoordoosten met uitschieters tot 33 kt

TAF: GCLP 260800Z 2609/2709 02023KT 9999 SCT030 TX23/2614Z TN17/2705Z PROB40 TEMPO 2615/2618 02023G33KT

Waarnemingen en weersverwachtingen van meer dan 4000 vliegvelden (METAR en TAF).

De beschikbare stations zijn de gele en rode punten op de kaart.

Ga met uw muis naar het station om de naam te zien.

Klik dan om waarnemingen en weersverwachtingen te zien.

kaart wijzigen: klik op de groene knoppen met een zwart kruis om in te zoomen, op de groene knop met een streepje om uit te zoomen of op de groene pijlen voor aangrenzende kaarten.


METAR-TAF: